createdAt,value
2018-06-09T00:02:19.069Z,17.50
2018-06-09T00:04:47.387Z,17.60
2018-06-09T00:07:15.689Z,17.60
2018-06-09T00:09:44.009Z,17.50
2018-06-09T00:12:12.394Z,17.50
2018-06-09T00:14:40.732Z,17.40
2018-06-09T00:17:09.068Z,17.40
2018-06-09T00:19:37.457Z,17.40
2018-06-09T00:22:05.743Z,17.50
2018-06-09T00:24:34.057Z,17.40
2018-06-09T00:27:02.392Z,17.40
2018-06-09T00:29:30.759Z,17.30
2018-06-09T00:31:59.076Z,17.30
2018-06-09T00:34:27.432Z,17.40
2018-06-09T00:36:55.795Z,17.40
2018-06-09T00:41:52.157Z,17.40
2018-06-09T00:44:20.579Z,17.30
2018-06-09T00:46:48.896Z,17.20
2018-06-09T00:49:17.240Z,17.20
2018-06-09T00:51:45.577Z,17.20
2018-06-09T00:54:13.919Z,17.10
2018-06-09T00:56:47.469Z,17.00
2018-06-09T00:59:15.808Z,17.10
2018-06-09T01:01:44.156Z,17.10
2018-06-09T01:04:12.498Z,17.10
2018-06-09T01:06:40.824Z,17.10
2018-06-09T01:11:37.728Z,17.10
2018-06-09T01:14:06.106Z,17.00
2018-06-09T01:16:34.449Z,17.00
2018-06-09T01:19:02.812Z,16.90
2018-06-09T01:21:31.125Z,16.90
2018-06-09T01:23:59.491Z,16.90
2018-06-09T01:26:27.853Z,16.90
2018-06-09T01:28:56.177Z,17.00
2018-06-09T01:31:24.498Z,17.00
2018-06-09T01:33:52.843Z,17.10
2018-06-09T01:36:21.166Z,17.10
2018-06-09T01:41:17.568Z,16.90
2018-06-09T01:43:45.906Z,16.80
2018-06-09T01:46:14.252Z,16.80
2018-06-09T01:48:42.603Z,16.80
2018-06-09T01:51:10.944Z,16.90
2018-06-09T01:53:39.284Z,16.90
2018-06-09T01:56:07.677Z,16.80
2018-06-09T01:58:35.985Z,16.80
2018-06-09T02:01:04.323Z,16.80
2018-06-09T02:03:32.648Z,16.60
2018-06-09T02:06:01.002Z,16.60
2018-06-09T02:08:29.322Z,16.60
2018-06-09T02:10:57.661Z,16.50
2018-06-09T02:13:25.978Z,16.50
2018-06-09T02:15:54.334Z,16.50
2018-06-09T02:18:22.684Z,16.50
2018-06-09T02:20:51.036Z,16.50
2018-06-09T02:23:19.379Z,16.50
2018-06-09T02:25:47.743Z,16.50
2018-06-09T02:28:16.153Z,16.50
2018-06-09T02:30:44.464Z,16.50
2018-06-09T02:33:12.790Z,16.60
2018-06-09T02:35:41.177Z,16.60
2018-06-09T02:38:09.507Z,16.70
2018-06-09T02:40:37.838Z,16.60
2018-06-09T02:43:06.175Z,16.60
2018-06-09T02:45:34.554Z,16.50
2018-06-09T02:48:02.918Z,16.40
2018-06-09T02:50:31.249Z,16.40
2018-06-09T02:52:59.582Z,16.30
2018-06-09T02:55:27.922Z,16.30
2018-06-09T02:57:56.269Z,16.40
2018-06-09T03:00:24.642Z,16.50
2018-06-09T03:02:53.241Z,16.50
2018-06-09T03:05:21.582Z,16.50
2018-06-09T03:07:49.944Z,16.50
2018-06-09T03:10:18.273Z,16.50
2018-06-09T03:12:46.629Z,16.50
2018-06-09T03:15:14.965Z,16.50
2018-06-09T03:17:43.285Z,16.50
2018-06-09T03:20:11.632Z,16.50
2018-06-09T03:22:39.949Z,16.50
2018-06-09T03:25:08.302Z,16.60
2018-06-09T03:27:36.633Z,16.50
2018-06-09T03:30:05.017Z,16.40
2018-06-09T03:32:33.442Z,16.40
2018-06-09T03:35:01.729Z,16.30
2018-06-09T03:37:30.065Z,16.20
2018-06-09T03:39:58.390Z,16.30
2018-06-09T03:45:01.486Z,16.30
2018-06-09T03:47:29.833Z,16.40
2018-06-09T03:49:58.293Z,16.30
2018-06-09T03:52:31.863Z,16.20
2018-06-09T03:55:00.208Z,16.30
2018-06-09T03:57:28.553Z,16.40
2018-06-09T03:59:56.903Z,16.30
2018-06-09T04:02:25.241Z,16.20
2018-06-09T04:04:53.622Z,16.20
2018-06-09T04:07:21.941Z,16.20
2018-06-09T04:09:50.255Z,16.10
2018-06-09T04:12:18.633Z,16.20
2018-06-09T04:14:47.006Z,16.20
2018-06-09T04:17:15.335Z,16.20
2018-06-09T04:19:43.684Z,16.20
2018-06-09T04:22:12.009Z,16.20
2018-06-09T04:24:40.325Z,16.20
2018-06-09T04:27:08.688Z,16.20
2018-06-09T04:29:37.022Z,16.30
2018-06-09T04:32:05.349Z,16.40
2018-06-09T04:34:33.657Z,16.40
2018-06-09T04:37:02.005Z,16.50
2018-06-09T04:39:30.317Z,16.50
2018-06-09T04:41:58.653Z,16.70
2018-06-09T04:44:26.981Z,16.70
2018-06-09T04:46:55.328Z,16.80
2018-06-09T04:49:23.645Z,16.70
2018-06-09T04:51:52.038Z,16.80
2018-06-09T04:54:20.364Z,16.80
2018-06-09T04:56:48.701Z,16.90
2018-06-09T04:59:17.096Z,17.00
2018-06-09T05:01:45.407Z,17.00
2018-06-09T05:04:15.813Z,17.00
2018-06-09T05:06:45.225Z,16.80
2018-06-09T05:11:42.974Z,16.80
2018-06-09T05:14:11.605Z,16.80
2018-06-09T05:16:41.837Z,16.90
2018-06-09T05:19:11.427Z,16.90
2018-06-09T05:21:40.548Z,17.00
2018-06-09T05:24:10.257Z,17.20
2018-06-09T05:26:39.744Z,17.40
2018-06-09T05:29:09.609Z,17.80
2018-06-09T05:31:38.917Z,18.10
2018-06-09T05:34:07.241Z,18.40
2018-06-09T05:36:38.331Z,18.60
2018-06-09T05:39:08.772Z,18.70
2018-06-09T05:41:37.737Z,18.80
2018-06-09T05:44:07.381Z,18.90
2018-06-09T05:46:37.674Z,18.90
2018-06-09T05:49:07.174Z,19.00
2018-06-09T05:51:36.826Z,19.00
2018-06-09T05:54:06.253Z,19.30
2018-06-09T05:56:35.109Z,19.40
2018-06-09T05:59:09.309Z,19.80
2018-06-09T06:01:39.765Z,19.90
2018-06-09T06:04:10.043Z,19.80
2018-06-09T06:06:39.145Z,19.60
2018-06-09T06:09:09.613Z,19.60
2018-06-09T06:11:38.780Z,19.90
2018-06-09T06:14:07.163Z,20.00
2018-06-09T06:16:36.426Z,20.20
2018-06-09T06:19:05.294Z,20.00
2018-06-09T06:21:33.955Z,19.80
2018-06-09T06:24:03.537Z,19.50
2018-06-09T06:26:32.682Z,19.40
2018-06-09T06:29:01.805Z,19.30
2018-06-09T06:31:31.076Z,19.10
2018-06-09T06:33:59.410Z,19.10
2018-06-09T06:36:28.397Z,19.20
2018-06-09T06:38:58.199Z,19.20
2018-06-09T06:41:28.603Z,19.30
2018-06-09T06:43:58.642Z,19.40
2018-06-09T06:46:28.070Z,19.60
2018-06-09T06:48:57.488Z,19.70
2018-06-09T06:51:27.356Z,19.80
2018-06-09T06:53:57.834Z,19.90
2018-06-09T06:56:27.091Z,20.00
2018-06-09T06:58:59.399Z,20.10
2018-06-09T07:01:29.627Z,20.30
2018-06-09T07:03:58.058Z,20.40
2018-06-09T07:06:27.374Z,20.40
2018-06-09T07:08:56.653Z,20.50
2018-06-09T07:11:26.703Z,20.50
2018-06-09T07:13:55.854Z,20.70
2018-06-09T07:16:24.854Z,20.80
2018-06-09T07:18:54.912Z,20.80
2018-06-09T07:21:24.182Z,20.90
2018-06-09T07:23:52.566Z,21.10
2018-06-09T07:26:21.870Z,21.00
2018-06-09T07:28:51.751Z,21.00
2018-06-09T07:31:21.755Z,21.40
2018-06-09T07:33:51.377Z,21.70
2018-06-09T07:36:20.554Z,22.00
2018-06-09T07:38:50.319Z,22.20
2018-06-09T07:43:47.696Z,22.80
2018-06-09T07:46:17.079Z,22.90
2018-06-09T07:51:15.824Z,23.30
2018-06-09T07:53:44.152Z,23.60
2018-06-09T07:56:13.077Z,23.70
2018-06-09T07:58:42.569Z,24.10
2018-06-09T08:01:11.775Z,24.40
2018-06-09T08:03:44.073Z,24.20
2018-06-09T08:06:12.947Z,24.20
2018-06-09T08:08:41.794Z,24.00
2018-06-09T08:11:11.251Z,23.70
2018-06-09T08:13:39.563Z,23.50
2018-06-09T08:16:08.891Z,23.70
2018-06-09T08:18:37.725Z,23.80
2018-06-09T08:21:07.202Z,23.60
2018-06-09T08:23:35.636Z,23.40
2018-06-09T08:26:06.551Z,23.80
2018-06-09T08:28:35.748Z,24.00
2018-06-09T08:33:32.481Z,25.10
2018-06-09T08:36:01.887Z,25.80
2018-06-09T08:38:30.795Z,26.40
2018-06-09T08:41:01.806Z,26.50
2018-06-09T08:45:59.051Z,27.10
2018-06-09T08:48:28.127Z,27.40
2018-06-09T08:50:57.397Z,27.40
2018-06-09T08:53:25.961Z,27.50
2018-06-09T08:55:55.913Z,27.50
2018-06-09T08:58:24.928Z,27.70
2018-06-09T09:00:53.662Z,27.80
2018-06-09T09:03:23.191Z,27.70
2018-06-09T09:05:51.577Z,27.40
2018-06-09T09:08:20.466Z,27.30
2018-06-09T09:10:49.667Z,26.80
2018-06-09T09:13:18.572Z,26.10
2018-06-09T09:15:48.263Z,26.20
2018-06-09T09:18:17.776Z,25.90
2018-06-09T09:20:46.542Z,26.00
2018-06-09T09:25:43.990Z,26.10
2018-06-09T09:28:13.079Z,26.10
2018-06-09T09:30:42.304Z,26.20
2018-06-09T09:33:11.503Z,26.00
2018-06-09T09:38:10.270Z,25.50
2018-06-09T09:40:39.371Z,25.90
2018-06-09T09:43:08.061Z,26.00
2018-06-09T09:45:36.934Z,26.00
2018-06-09T09:48:06.973Z,25.70
2018-06-09T09:50:35.945Z,25.50
2018-06-09T09:53:05.073Z,25.60
2018-06-09T09:55:34.005Z,25.70
2018-06-09T09:58:03.489Z,26.00
2018-06-09T10:00:38.124Z,26.40
2018-06-09T10:03:07.357Z,27.00
2018-06-09T10:05:36.612Z,27.50
2018-06-09T10:08:05.452Z,27.90
2018-06-09T10:10:35.026Z,28.20
2018-06-09T10:13:04.489Z,28.60
2018-06-09T10:15:34.585Z,29.00
2018-06-09T10:18:03.593Z,28.50
2018-06-09T10:20:33.280Z,28.90
2018-06-09T10:23:02.134Z,29.00
2018-06-09T10:25:31.077Z,28.80
2018-06-09T10:28:00.609Z,29.60
2018-06-09T10:30:30.140Z,29.70
2018-06-09T10:33:02.595Z,29.70
2018-06-09T10:35:32.227Z,30.30
2018-06-09T10:38:01.512Z,30.60
2018-06-09T10:40:30.514Z,30.70
2018-06-09T10:42:59.210Z,31.00
2018-06-09T10:45:28.095Z,31.10
2018-06-09T10:47:57.162Z,31.20
2018-06-09T10:50:26.076Z,31.40
2018-06-09T10:52:55.454Z,31.60
2018-06-09T10:55:24.541Z,31.10
2018-06-09T10:57:54.135Z,31.30
2018-06-09T11:00:22.981Z,30.60
2018-06-09T11:02:52.112Z,30.90
2018-06-09T11:05:20.977Z,31.10
2018-06-09T11:07:50.054Z,31.30
2018-06-09T11:10:19.687Z,31.30
2018-06-09T11:12:49.916Z,31.50
2018-06-09T11:15:18.970Z,31.50
2018-06-09T11:17:48.710Z,31.70
2018-06-09T11:20:18.589Z,31.80
2018-06-09T11:22:47.642Z,31.70
2018-06-09T11:25:16.605Z,31.50
2018-06-09T11:27:46.394Z,31.70
2018-06-09T11:30:15.913Z,31.90
2018-06-09T11:32:44.781Z,31.10
2018-06-09T11:35:14.228Z,31.30
2018-06-09T11:37:43.601Z,32.00
2018-06-09T11:40:13.422Z,32.50
2018-06-09T11:42:42.127Z,31.80
2018-06-09T11:45:11.048Z,30.80
2018-06-09T11:47:40.701Z,29.60
2018-06-09T11:50:09.477Z,29.30
2018-06-09T11:52:38.618Z,29.20
2018-06-09T11:55:07.817Z,28.50
2018-06-09T11:57:37.111Z,29.10
2018-06-09T12:00:06.629Z,30.20
2018-06-09T12:02:37.006Z,30.50
2018-06-09T12:05:05.905Z,30.90
2018-06-09T12:07:34.830Z,31.20
2018-06-09T12:10:03.765Z,31.00
2018-06-09T12:12:32.542Z,31.40
2018-06-09T12:15:01.388Z,31.40
2018-06-09T12:17:32.340Z,31.40
2018-06-09T12:20:01.425Z,31.40
2018-06-09T12:22:30.604Z,31.50
2018-06-09T12:25:00.136Z,31.50
2018-06-09T12:27:29.143Z,31.40
2018-06-09T12:29:58.399Z,30.90
2018-06-09T12:32:27.852Z,30.10
2018-06-09T12:34:56.664Z,29.00
2018-06-09T12:37:26.516Z,28.10
2018-06-09T12:39:55.442Z,27.60
2018-06-09T12:42:24.805Z,27.00
2018-06-09T12:44:53.831Z,26.70
2018-06-09T12:47:22.588Z,26.70
2018-06-09T12:49:52.335Z,26.70
2018-06-09T12:52:21.184Z,26.70
2018-06-09T12:54:50.726Z,26.50
2018-06-09T12:57:19.841Z,26.50
2018-06-09T12:59:50.385Z,26.40
2018-06-09T13:02:19.841Z,26.40
2018-06-09T13:04:48.593Z,26.20
2018-06-09T13:07:17.549Z,26.20
2018-06-09T13:09:47.087Z,26.10
2018-06-09T13:12:15.710Z,25.90
2018-06-09T13:14:44.827Z,25.70
2018-06-09T13:17:14.051Z,25.60
2018-06-09T13:19:43.872Z,25.50
2018-06-09T13:22:15.753Z,25.40
2018-06-09T13:24:44.627Z,25.40
2018-06-09T13:27:14.256Z,25.40
2018-06-09T13:29:43.195Z,25.50
2018-06-09T13:32:12.955Z,25.40
2018-06-09T13:34:41.845Z,25.40
2018-06-09T13:37:11.729Z,25.60
2018-06-09T13:39:40.930Z,25.70
2018-06-09T13:42:09.835Z,25.90
2018-06-09T13:44:38.862Z,26.10
2018-06-09T13:47:07.671Z,26.40
2018-06-09T13:49:36.437Z,26.50
2018-06-09T13:52:05.579Z,26.70
2018-06-09T13:54:33.955Z,26.60
2018-06-09T13:57:03.771Z,26.60
2018-06-09T13:59:33.164Z,26.70
2018-06-09T14:02:01.986Z,26.80
2018-06-09T14:04:31.860Z,26.70
2018-06-09T14:07:01.419Z,26.60
2018-06-09T14:09:30.335Z,26.20
2018-06-09T14:12:00.107Z,26.10
2018-06-09T14:14:29.054Z,25.70
2018-06-09T14:16:59.495Z,25.50
2018-06-09T14:19:28.401Z,25.30
2018-06-09T14:21:57.558Z,25.10
2018-06-09T14:24:26.185Z,24.90
2018-06-09T14:26:55.116Z,25.00
2018-06-09T14:29:23.908Z,24.80
2018-06-09T14:31:56.841Z,24.80
2018-06-09T14:34:26.394Z,24.70
2018-06-09T14:36:55.243Z,24.70
2018-06-09T14:39:24.176Z,24.60
2018-06-09T14:41:54.166Z,24.70
2018-06-09T14:44:23.778Z,24.80
2018-06-09T14:46:53.114Z,24.90
2018-06-09T14:49:22.159Z,25.00
2018-06-09T14:51:51.193Z,24.90
2018-06-09T14:54:21.271Z,24.70
2018-06-09T14:56:50.194Z,24.60
2018-06-09T14:59:18.874Z,24.60
2018-06-09T15:01:47.844Z,24.50
2018-06-09T15:04:16.513Z,24.50
2018-06-09T15:06:45.080Z,24.40
2018-06-09T15:14:12.420Z,24.50
2018-06-09T15:16:41.157Z,24.60
2018-06-09T15:21:38.257Z,24.80
2018-06-09T15:24:11.676Z,24.90
2018-06-09T15:26:40.535Z,24.80
2018-06-09T15:29:09.563Z,24.60
2018-06-09T15:31:39.127Z,24.60
2018-06-09T15:34:08.374Z,24.60
2018-06-09T15:36:37.697Z,24.30
2018-06-09T15:39:09.344Z,24.10
2018-06-09T15:41:38.313Z,23.90
2018-06-09T15:44:07.109Z,23.90
2018-06-09T15:46:36.384Z,23.80
2018-06-09T15:49:05.324Z,23.70
2018-06-09T15:51:36.151Z,23.70
2018-06-09T15:54:06.015Z,23.70
2018-06-09T15:56:35.110Z,23.60
2018-06-09T15:59:04.282Z,23.40
2018-06-09T16:01:35.954Z,23.30
2018-06-09T16:04:04.438Z,23.30
2018-06-09T16:06:34.526Z,23.10
2018-06-09T16:09:03.969Z,23.10
2018-06-09T16:11:32.898Z,23.00
2018-06-09T16:14:01.354Z,23.00
2018-06-09T16:16:31.525Z,23.00
2018-06-09T16:19:01.063Z,22.80
2018-06-09T16:21:29.839Z,22.70
2018-06-09T16:23:58.160Z,22.70
2018-06-09T16:26:27.891Z,22.60
2018-06-09T16:28:59.129Z,22.60
2018-06-09T16:31:28.022Z,22.60
2018-06-09T16:33:56.329Z,22.60
2018-06-09T16:36:25.119Z,22.40
2018-06-09T16:38:54.607Z,22.30
2018-06-09T16:41:23.995Z,22.20
2018-06-09T16:43:52.327Z,22.10
2018-06-09T16:46:21.270Z,22.00
2018-06-09T16:48:50.224Z,21.90
2018-06-09T16:51:20.640Z,21.90
2018-06-09T16:53:50.987Z,21.70
2018-06-09T16:56:19.718Z,21.70
2018-06-09T16:58:48.837Z,21.60
2018-06-09T17:01:17.871Z,21.40
2018-06-09T17:03:46.231Z,21.40
2018-06-09T17:06:15.456Z,21.50
2018-06-09T17:08:46.248Z,21.40
2018-06-09T17:11:15.023Z,21.40
2018-06-09T17:13:43.859Z,21.20
2018-06-09T17:16:13.706Z,21.10
2018-06-09T17:18:43.576Z,21.00
2018-06-09T17:21:18.853Z,21.00
2018-06-09T17:23:47.221Z,21.10
2018-06-09T17:26:16.575Z,21.00
2018-06-09T17:28:45.461Z,21.00
2018-06-09T17:31:14.899Z,21.10
2018-06-09T17:36:14.561Z,21.00
2018-06-09T17:38:44.227Z,21.00
2018-06-09T17:41:14.592Z,21.00
2018-06-09T17:43:42.947Z,21.00
2018-06-09T17:46:12.857Z,21.00
2018-06-09T17:48:43.822Z,20.90
2018-06-09T17:51:14.021Z,20.90
2018-06-09T17:53:42.374Z,20.90
2018-06-09T17:56:11.933Z,20.90
2018-06-09T17:58:40.753Z,20.70
2018-06-09T18:01:09.886Z,20.80
2018-06-09T18:03:39.452Z,20.80
2018-06-09T18:06:08.210Z,20.70
2018-06-09T18:08:37.232Z,20.60
2018-06-09T18:11:05.982Z,20.60
2018-06-09T18:13:34.338Z,20.60
2018-06-09T18:16:03.894Z,20.50
2018-06-09T18:18:32.653Z,20.50
2018-06-09T18:21:01.649Z,20.50
2018-06-09T18:23:29.994Z,20.40
2018-06-09T18:30:56.580Z,20.20
2018-06-09T18:33:25.083Z,20.10
2018-06-09T18:35:55.148Z,20.00
2018-06-09T18:40:52.609Z,19.80
2018-06-09T18:43:21.218Z,19.80
2018-06-09T18:45:50.086Z,19.70
2018-06-09T18:48:18.847Z,19.60
2018-06-09T18:50:47.929Z,19.60
2018-06-09T18:53:16.491Z,19.50
2018-06-09T18:55:46.423Z,19.50
2018-06-09T18:58:15.241Z,19.50
2018-06-09T19:00:44.897Z,19.50
2018-06-09T19:03:13.558Z,19.40
2018-06-09T19:05:43.225Z,19.30
2018-06-09T19:08:12.492Z,19.30
2018-06-09T19:10:41.903Z,19.30
2018-06-09T19:13:11.389Z,19.30
2018-06-09T19:15:41.134Z,19.20
2018-06-09T19:18:09.853Z,19.30
2018-06-09T19:20:38.914Z,19.50
2018-06-09T19:23:07.768Z,19.50
2018-06-09T19:25:36.464Z,19.60
2018-06-09T19:28:05.514Z,19.50
2018-06-09T19:30:34.773Z,19.30
2018-06-09T19:33:03.534Z,19.20
2018-06-09T19:35:32.256Z,19.20
2018-06-09T19:38:01.516Z,19.30
2018-06-09T19:40:30.137Z,19.30
2018-06-09T19:42:59.022Z,19.20
2018-06-09T19:45:27.843Z,19.30
2018-06-09T19:47:57.086Z,19.20
2018-06-09T19:50:25.972Z,19.40
2018-06-09T19:53:57.543Z,19.20
2018-06-09T19:56:26.394Z,19.10
2018-06-09T19:58:56.087Z,19.00
2018-06-09T20:01:25.322Z,19.00
2018-06-09T20:03:53.673Z,19.40
2018-06-09T20:06:22.653Z,19.80
2018-06-09T20:08:51.490Z,20.10
2018-06-09T20:11:20.228Z,20.20
2018-06-09T20:13:48.569Z,19.60
2018-06-09T20:16:18.187Z,19.40
2018-06-09T20:18:46.778Z,19.20
2018-06-09T20:21:17.358Z,19.00
2018-06-09T20:23:46.312Z,18.80
2018-06-09T20:26:16.400Z,18.80
2018-06-09T20:28:45.218Z,18.70
2018-06-09T20:33:44.010Z,18.50
2018-06-09T20:36:13.409Z,18.50
2018-06-09T20:38:42.272Z,18.50
2018-06-09T20:41:11.745Z,18.60
2018-06-09T20:43:40.709Z,18.60
2018-06-09T20:46:12.648Z,18.50
2018-06-09T20:48:41.862Z,18.40
2018-06-09T20:51:11.036Z,18.40
2018-06-09T20:53:40.181Z,18.40
2018-06-09T20:56:08.897Z,18.40
2018-06-09T20:58:40.287Z,18.20
2018-06-09T21:01:09.887Z,18.00
2018-06-09T21:03:38.208Z,17.90
2018-06-09T21:06:07.481Z,17.80
2018-06-09T21:08:36.870Z,17.80
2018-06-09T21:11:06.327Z,17.80
2018-06-09T21:13:34.643Z,17.80
2018-06-09T21:16:04.060Z,17.70
2018-06-09T21:18:33.141Z,17.80
2018-06-09T21:21:02.847Z,17.80
2018-06-09T21:23:31.145Z,17.80
2018-06-09T21:26:00.034Z,17.80
2018-06-09T21:28:33.564Z,17.70
2018-06-09T21:31:07.648Z,17.70
2018-06-09T21:34:06.831Z,17.60
2018-06-09T21:36:41.356Z,17.60
2018-06-09T21:39:14.903Z,17.80
2018-06-09T21:41:45.323Z,17.80
2018-06-09T21:44:18.849Z,17.90
2018-06-09T21:46:49.734Z,18.00
2018-06-09T21:49:19.205Z,18.20
2018-06-09T21:51:48.120Z,18.20
2018-06-09T21:54:17.200Z,18.20
2018-06-09T21:56:47.954Z,18.20
2018-06-09T21:59:16.978Z,18.30
2018-06-09T22:01:45.358Z,18.30
2018-06-09T22:04:13.657Z,18.30
2018-06-09T22:06:42.014Z,18.40
2018-06-09T22:09:10.345Z,18.40
2018-06-09T22:11:38.685Z,18.30
2018-06-09T22:14:07.013Z,18.30
2018-06-09T22:16:35.348Z,18.20
2018-06-09T22:19:03.697Z,18.30
2018-06-09T22:21:32.049Z,18.20
2018-06-09T22:24:00.357Z,18.30
2018-06-09T22:26:29.623Z,18.40
2018-06-09T22:28:57.974Z,18.30
2018-06-09T22:31:26.314Z,18.30
2018-06-09T22:33:54.645Z,18.30
2018-06-09T22:36:22.982Z,18.20
2018-06-09T22:41:19.342Z,18.10
2018-06-09T22:43:47.697Z,18.00
2018-06-09T22:46:16.060Z,17.90
2018-06-09T22:48:44.367Z,17.90
2018-06-09T22:51:12.779Z,17.90
2018-06-09T22:53:41.142Z,17.90
2018-06-09T22:56:09.478Z,17.80
2018-06-09T22:58:37.838Z,17.80
2018-06-09T23:01:06.265Z,17.80
2018-06-09T23:03:34.721Z,17.70
2018-06-09T23:06:03.142Z,17.70
2018-06-09T23:08:31.446Z,17.70
2018-06-09T23:10:59.791Z,17.60
2018-06-09T23:13:28.146Z,17.50
2018-06-09T23:15:56.469Z,17.50
2018-06-09T23:18:24.809Z,17.50
2018-06-09T23:20:53.134Z,17.50
2018-06-09T23:23:21.483Z,17.50
2018-06-09T23:25:49.811Z,17.60
2018-06-09T23:28:18.165Z,17.60
2018-06-09T23:30:46.552Z,17.50
2018-06-09T23:33:14.821Z,17.50
2018-06-09T23:35:43.152Z,17.50
2018-06-09T23:38:11.491Z,17.50
2018-06-09T23:40:39.824Z,17.50
2018-06-09T23:43:08.171Z,17.50
2018-06-09T23:45:36.473Z,17.50
2018-06-09T23:48:04.858Z,17.40
2018-06-09T23:50:33.174Z,17.40
2018-06-09T23:53:01.499Z,17.40
2018-06-09T23:55:29.812Z,17.30
2018-06-09T23:57:58.153Z,17.20
